Rey, Iran
Current Conditions -  °F | °C
As of 12:30 AM on Sunday 21 Dec 2014 (Local Time) from OIII Reporting Station
Moderate Rain Moderate Rain  
Wind Chill: 36°   Ceiling: 8000
Heat Index: 41°   Visibility: 1.5mi
Dew Point: 37°   Wind: 7mph
Humidity: 87%   Direction: 70°ENE
Pressure: 30.06"   Gusts: NA
Location:  35.6°N, 51.44°E
Report Text: OIII 202130Z 07006KT 2500 RA BR FEW035CB SCT040 OVC080 05/03 Q1018 A3006 NOSIG
Loading
Personal Weather Stations






























Interactive Weather Map New forecast layout! Learn more

10-Day Weather Forecast

Advertisements
Track Severe Weather on mobile